Pathfinder — WDD7777 — position and weather

sailwx.info

Track history (hours):
 
Tides and Currents Weather Stations Pressure Air Temp Water Temp Dewpoint Dewpoint Depression Visibility Wind Speed Wind Dir Waves Ship Positions

Pathfinder

Owner: Milton Point LLC, Norfolk, VA. More information available from US FCC via Universal Licensing System and Coast Guard Vessel Documentation Center.

Last reported at 2017-Nov-23 05:01 UTC. Time now 2017-Nov-23 05:14 UTC.
Position N 40°46' W 073°51'.

Length 31 m; draft 4.1 m.

Type: Towing. MMSI: 367191190.

Date/timePositionNaut miles runAvg speedWind from/ knotsBaromVisibWave heightAir tempDewpointWater temp
2017-Nov-23 05:01N 40°46' W 073°51'0 0.0
2017-Nov-23 04:30N 40°46' W 073°51'0 0.4
2017-Nov-23 04:00N 40°46' W 073°51'2 4.9
2017-Nov-23 03:30N 40°48' W 073°53'4 7.2
2017-Nov-23 03:00N 40°46' W 073°57'3 6.8
2017-Nov-23 02:31N 40°43' W 073°58'3 6.3
2017-Nov-23 02:01N 40°41' W 074°02'3 5.4
2017-Nov-23 01:30N 40°39' W 074°05'2 4.9
2017-Nov-23 01:00N 40°39' W 074°08'3 5.1
2017-Nov-23 00:30N 40°39' W 074°11'1 1.0
2017-Nov-23 00:00N 40°38' W 074°12'2 3.9
2017-Nov-22 23:31N 40°39' W 074°09'3 5.4
2017-Nov-22 23:00N 40°39' W 074°06'3 5.4
2017-Nov-22 22:31N 40°40' W 074°02'3 6.4
2017-Nov-22 22:01N 40°42' W 073°59'3 6.6
2017-Nov-22 21:31N 40°45' W 073°58'3 6.4
2017-Nov-22 20:59N 40°48' W 073°55'2 3.8
2017-Nov-22 20:30N 40°48' W 073°52'2 3.5
2017-Nov-22 20:00N 40°46' W 073°51'0 0.0
2017-Nov-22 19:30N 40°46' W 073°51'  
2017-Nov-20 00:30N 40°46' W 073°51'0 0.0
2017-Nov-20 00:00N 40°46' W 073°51'0 0.0
2017-Nov-19 23:29N 40°46' W 073°51'0 0.0
2017-Nov-19 23:00N 40°46' W 073°51'0 0.0
2017-Nov-19 22:27N 40°46' W 073°51'0 0.0
2017-Nov-19 21:59N 40°46' W 073°51'0 0.0
2017-Nov-19 21:28N 40°46' W 073°51'0 0.0
2017-Nov-19 21:00N 40°46' W 073°51'0 0.0
2017-Nov-19 20:30N 40°46' W 073°51'0 0.0
2017-Nov-19 20:00N 40°46' W 073°51'0 0.0
2017-Nov-19 19:30N 40°46' W 073°51'0 0.0
2017-Nov-19 19:00N 40°46' W 073°51'0 0.0
2017-Nov-19 18:30N 40°46' W 073°51'0 0.0
2017-Nov-19 18:00N 40°46' W 073°51'0 0.0
2017-Nov-19 17:30N 40°46' W 073°51'0 0.0
2017-Nov-19 17:00N 40°46' W 073°51'0 0.0
2017-Nov-19 16:30N 40°46' W 073°51'0 0.0
2017-Nov-19 16:00N 40°46' W 073°51'0 0.0
2017-Nov-19 15:30N 40°46' W 073°51'0 0.0
2017-Nov-19 15:00N 40°46' W 073°51'0 0.0
2017-Nov-19 14:30N 40°46' W 073°51'0 0.0
2017-Nov-19 14:00N 40°46' W 073°51'0 0.0
2017-Nov-19 13:30N 40°46' W 073°51'0 0.0
2017-Nov-19 13:00N 40°46' W 073°51'0 0.0
2017-Nov-19 12:30N 40°46' W 073°51'0 0.0
2017-Nov-19 12:00N 40°46' W 073°51'0 0.0
2017-Nov-19 11:30N 40°46' W 073°51'0 0.0
2017-Nov-19 11:00N 40°46' W 073°51'0 0.0
2017-Nov-19 10:30N 40°46' W 073°51'0 0.0
2017-Nov-19 10:00N 40°46' W 073°51'0 0.0
2017-Nov-19 09:30N 40°46' W 073°51'0 0.0
2017-Nov-19 09:00N 40°46' W 073°51'0 0.0
2017-Nov-19 08:30N 40°46' W 073°51'0 0.0
2017-Nov-19 08:00N 40°46' W 073°51'0 0.0
2017-Nov-19 07:30N 40°46' W 073°51'0 0.0
2017-Nov-19 07:00N 40°46' W 073°51'0 0.0
2017-Nov-19 06:30N 40°46' W 073°51'0 0.0
2017-Nov-19 05:59N 40°46' W 073°51'0 0.0
2017-Nov-19 05:30N 40°46' W 073°51'0 0.0
2017-Nov-19 05:00N 40°46' W 073°51'0 0.0
2017-Nov-19 04:30N 40°46' W 073°51'0 0.0
2017-Nov-19 04:00N 40°46' W 073°51'0 0.0
2017-Nov-19 03:30N 40°46' W 073°51'0 0.0
2017-Nov-19 03:00N 40°46' W 073°51'0 0.0
2017-Nov-19 02:30N 40°46' W 073°51'0 0.0
2017-Nov-19 02:00N 40°46' W 073°51'0 0.0
2017-Nov-19 01:30N 40°46' W 073°51'0 0.0
2017-Nov-19 01:00N 40°46' W 073°51'0 0.0
2017-Nov-19 00:30N 40°46' W 073°51'0 0.0
2017-Nov-18 23:59N 40°46' W 073°51'0 0.0
2017-Nov-18 23:30N 40°46' W 073°51'0 0.0
2017-Nov-18 23:00N 40°46' W 073°51'0 0.0
2017-Nov-18 22:30N 40°46' W 073°51'0 0.0
2017-Nov-18 22:00N 40°46' W 073°51'0 0.0
2017-Nov-18 21:30N 40°46' W 073°51'0 0.0
2017-Nov-18 21:00N 40°46' W 073°51'0 0.0
2017-Nov-18 20:30N 40°46' W 073°51'0 0.0
2017-Nov-18 20:00N 40°46' W 073°51'0 0.0
2017-Nov-18 19:30N 40°46' W 073°51'0 0.0
2017-Nov-18 19:00N 40°46' W 073°51'0 0.0
2017-Nov-18 18:30N 40°46' W 073°51'0 0.0
2017-Nov-18 18:00N 40°46' W 073°51'0 0.0
2017-Nov-18 17:30N 40°46' W 073°51'0 0.0
2017-Nov-18 17:00N 40°46' W 073°51'0 0.0
2017-Nov-18 16:30N 40°46' W 073°51'0 0.0
2017-Nov-18 16:00N 40°46' W 073°51'0 0.0
2017-Nov-18 15:30N 40°46' W 073°51'0 0.0
2017-Nov-18 15:00N 40°46' W 073°51'0 0.0
2017-Nov-18 14:30N 40°46' W 073°51'0 0.0
2017-Nov-18 14:00N 40°46' W 073°51'0 0.0
2017-Nov-18 13:30N 40°46' W 073°51'0 0.0
2017-Nov-18 13:00N 40°46' W 073°51'0 0.1
2017-Nov-18 12:30N 40°46' W 073°51'2 3.6
2017-Nov-18 11:59N 40°48' W 073°52'3 5.8
2017-Nov-18 11:30N 40°47' W 073°56'3 6.9
2017-Nov-18 11:00N 40°44' W 073°58'3 5.9
2017-Nov-18 10:30N 40°41' W 074°00'3 6.0
2017-Nov-18 10:00N 40°40' W 074°04'3 5.1
2017-Nov-18 09:30N 40°39' W 074°07'2 4.4
2017-Nov-18 09:00N 40°39' W 074°10'2 3.1
2017-Nov-18 08:30N 40°38' W 074°12'0 0.0
2017-Nov-18 08:00N 40°38' W 074°12'0 0.0
2017-Nov-18 07:30N 40°38' W 074°12'0 0.0
2017-Nov-18 07:00N 40°38' W 074°12'0 0.0
2017-Nov-18 06:30N 40°38' W 074°12'0 0.0
2017-Nov-18 06:00N 40°38' W 074°12'0 0.0
2017-Nov-18 05:30N 40°38' W 074°12'0 0.0
2017-Nov-18 05:00N 40°38' W 074°12'0 0.0
2017-Nov-18 04:30N 40°38' W 074°12'0 0.0
2017-Nov-18 04:00N 40°38' W 074°12'0 0.0
2017-Nov-18 03:30N 40°38' W 074°12'0 0.0
2017-Nov-18 03:00N 40°38' W 074°12'0 0.0
2017-Nov-18 02:30N 40°38' W 074°12'0 0.0
2017-Nov-18 02:00N 40°38' W 074°12'0 0.0
2017-Nov-18 01:30N 40°38' W 074°12'0 0.0
2017-Nov-18 01:00N 40°38' W 074°12'0 0.0
2017-Nov-18 00:30N 40°38' W 074°12'0 0.0
2017-Nov-18 00:00N 40°38' W 074°12'0 0.3
2017-Nov-17 23:30N 40°38' W 074°12'3 5.5
2017-Nov-17 23:00N 40°39' W 074°08'3 5.8
2017-Nov-17 22:30N 40°39' W 074°04'3 5.6
2017-Nov-17 22:00N 40°41' W 074°01'2 4.3
2017-Nov-17 21:30N 40°42' W 073°59'2 3.4
2017-Nov-17 21:00N 40°44' W 073°58'2 4.6
2017-Nov-17 20:30N 40°46' W 073°57'3 5.3
2017-Nov-17 20:00N 40°48' W 073°54'2 4.3
2017-Nov-17 19:30N 40°48' W 073°52'1 2.7
2017-Nov-17 18:59N 40°46' W 073°51'0 0.0
2017-Nov-17 18:30N 40°46' W 073°51'0 0.1
2017-Nov-17 18:00N 40°46' W 073°51'0 0.0
2017-Nov-17 17:30N 40°46' W 073°51'0 0.1
2017-Nov-17 17:00N 40°46' W 073°51'0 0.0
2017-Nov-17 16:30N 40°46' W 073°51'0 0.0
2017-Nov-17 16:00N 40°46' W 073°51'0 0.0
2017-Nov-17 15:30N 40°46' W 073°51'0 0.0
2017-Nov-17 15:00N 40°46' W 073°51'0 0.0
2017-Nov-17 14:30N 40°46' W 073°51'0 0.0
2017-Nov-17 14:00N 40°46' W 073°51'0 0.0
2017-Nov-17 13:30N 40°46' W 073°51'0 0.0
2017-Nov-17 13:00N 40°46' W 073°51'0 0.0
2017-Nov-17 12:30N 40°46' W 073°51'0 0.0
2017-Nov-17 12:00N 40°46' W 073°51'0 0.0
2017-Nov-17 11:30N 40°46' W 073°51'0 0.0
2017-Nov-17 11:00N 40°46' W 073°51'0 0.0
2017-Nov-17 10:30N 40°46' W 073°51'0 0.0
2017-Nov-17 10:00N 40°46' W 073°51'0 0.0
2017-Nov-17 09:30N 40°46' W 073°51'0 0.0
2017-Nov-17 09:00N 40°46' W 073°51'0 0.0
2017-Nov-17 08:30N 40°46' W 073°51'0 0.0
2017-Nov-17 08:00N 40°46' W 073°51'0 0.0
2017-Nov-17 07:30N 40°46' W 073°51'0 0.0
2017-Nov-17 07:00N 40°46' W 073°51'0 0.0
2017-Nov-17 06:30N 40°46' W 073°51'0 0.0
2017-Nov-17 06:00N 40°46' W 073°51'0 0.0
2017-Nov-17 05:30N 40°46' W 073°51'0 0.0
2017-Nov-17 05:00N 40°46' W 073°51'0 0.0
2017-Nov-17 04:30N 40°46' W 073°51'0 0.0
2017-Nov-17 04:00N 40°46' W 073°51'0 0.0
2017-Nov-17 03:30N 40°46' W 073°51'0 0.1
2017-Nov-17 03:00N 40°46' W 073°51'0 0.1
2017-Nov-17 02:30N 40°46' W 073°51'0 0.0
2017-Nov-17 02:00N 40°46' W 073°51'0 0.0
2017-Nov-17 01:30N 40°46' W 073°51'0 0.0
2017-Nov-17 00:59N 40°46' W 073°51'0 0.0
2017-Nov-17 00:30N 40°46' W 073°51'1 2.4
2017-Nov-16 23:59N 40°47' W 073°52'2 4.4
2017-Nov-16 23:30N 40°48' W 073°55'4 7.9
2017-Nov-16 23:00N 40°45' W 073°58'3 6.0
2017-Nov-16 22:30N 40°42' W 073°60'3 5.3
2017-Nov-16 22:00N 40°40' W 074°02'3 5.7
2017-Nov-16 21:30N 40°39' W 074°06'2 4.7
2017-Nov-16 21:00N 40°38' W 074°09'2 4.5
2017-Nov-16 20:30N 40°38' W 074°12'1 1.2
2017-Nov-16 20:00N 40°39' W 074°11'3 5.3
2017-Nov-16 19:30N 40°39' W 074°08'3 5.0
2017-Nov-16 19:00N 40°39' W 074°04'3 5.7
2017-Nov-16 18:30N 40°41' W 074°01'3 6.4
2017-Nov-16 18:01N 40°43' W 073°58'4 7.7
2017-Nov-16 17:30N 40°47' W 073°56'3 6.1
2017-Nov-16 17:00N 40°48' W 073°53'2 4.1
2017-Nov-16 16:30N 40°46' W 073°51'0 0.1
2017-Nov-16 15:59N 40°46' W 073°51'0 0.0
2017-Nov-16 15:30N 40°46' W 073°51'0 0.0
2017-Nov-16 15:00N 40°46' W 073°51'0 0.0
2017-Nov-16 14:30N 40°46' W 073°51'0 0.0
2017-Nov-16 14:00N 40°46' W 073°51'0 0.0
2017-Nov-16 13:30N 40°46' W 073°51'0 0.0
2017-Nov-16 12:53N 40°46' W 073°51'0 0.0
2017-Nov-16 12:29N 40°46' W 073°51'0 0.0
2017-Nov-16 12:00N 40°46' W 073°51'0 0.0
2017-Nov-16 11:30N 40°46' W 073°51'0 0.0
2017-Nov-16 11:00N 40°46' W 073°51'0 0.0
2017-Nov-16 10:30N 40°46' W 073°51'0 0.0
2017-Nov-16 10:00N 40°46' W 073°51'0 0.0
2017-Nov-16 09:30N 40°46' W 073°51'0 0.0
2017-Nov-16 09:00N 40°46' W 073°51'0 0.0
2017-Nov-16 08:29N 40°46' W 073°51'0 0.0
2017-Nov-16 08:00N 40°46' W 073°51'0 0.0
2017-Nov-16 07:29N 40°46' W 073°51'0 0.0
2017-Nov-16 07:00N 40°46' W 073°51'0 0.0
2017-Nov-16 06:29N 40°46' W 073°51'0 0.0
2017-Nov-16 06:00N 40°46' W 073°51'0 0.0
2017-Nov-16 05:30N 40°46' W 073°51'0 0.0
2017-Nov-16 05:00N 40°46' W 073°51'0 0.0
2017-Nov-16 04:30N 40°46' W 073°51'0 0.0
2017-Nov-16 04:00N 40°46' W 073°51'0 0.0
2017-Nov-16 03:30N 40°46' W 073°51'0 0.0
2017-Nov-16 03:00N 40°46' W 073°51'0 0.0
2017-Nov-16 02:30N 40°46' W 073°51'0 0.0
2017-Nov-16 02:00N 40°46' W 073°51'0 0.0
2017-Nov-16 01:30N 40°46' W 073°51'0 0.0
2017-Nov-16 01:00N 40°46' W 073°51'0 0.0
2017-Nov-16 00:30N 40°46' W 073°51'0 0.0
2017-Nov-16 00:00N 40°46' W 073°51'0 0.0
2017-Nov-15 23:30N 40°46' W 073°51'0 0.0
2017-Nov-15 22:59N 40°46' W 073°51'1 1.3
2017-Nov-15 22:29N 40°47' W 073°51'2 4.3
2017-Nov-15 22:00N 40°48' W 073°54'4 7.4
2017-Nov-15 21:29N 40°46' W 073°57'3 6.7
2017-Nov-15 21:00N 40°43' W 073°59'3 6.0
2017-Nov-15 20:30N 40°41' W 074°02'3 5.8
2017-Nov-15 20:00N 40°39' W 074°05'2 4.5
2017-Nov-15 19:30N 40°39' W 074°08'3 5.1
2017-Nov-15 19:00N 40°39' W 074°11'1 1.2
2017-Nov-15 18:30N 40°38' W 074°12'0 0.0
2017-Nov-15 18:00N 40°38' W 074°12'0 0.1
2017-Nov-15 17:30N 40°38' W 074°12'2 3.7
2017-Nov-15 17:00N 40°39' W 074°09'2 4.1
2017-Nov-15 16:30N 40°39' W 074°07'2 4.4
2017-Nov-15 16:00N 40°40' W 074°04'3 6.4
2017-Nov-15 15:30N 40°42' W 074°01'3 6.9
2017-Nov-15 15:00N 40°45' W 073°58'4 8.6
2017-Nov-15 14:29N 40°48' W 073°54'2 4.7
2017-Nov-15 14:00N 40°47' W 073°52'1 1.9
2017-Nov-15 13:30N 40°46' W 073°51'0 0.0
2017-Nov-15 13:00N 40°46' W 073°51'0 0.0
2017-Nov-15 12:00N 40°46' W 073°51'0 0.0
2017-Nov-15 11:30N 40°46' W 073°51'0 0.0
2017-Nov-15 11:00N 40°46' W 073°51'0 0.0
2017-Nov-15 10:30N 40°46' W 073°51'0 0.0
2017-Nov-15 10:00N 40°46' W 073°51'0 0.1
2017-Nov-15 09:30N 40°46' W 073°51'0 0.0
2017-Nov-15 09:00N 40°46' W 073°51'0 0.0
2017-Nov-15 08:30N 40°46' W 073°51'0 0.0
2017-Nov-15 08:00N 40°46' W 073°51'0 0.0
2017-Nov-15 07:30N 40°46' W 073°51'0 0.0
2017-Nov-15 07:00N 40°46' W 073°51'0 0.0
2017-Nov-15 06:30N 40°46' W 073°51'0 0.0
2017-Nov-15 06:00N 40°46' W 073°51'0 0.0
2017-Nov-15 05:30N 40°46' W 073°51'0 0.0
2017-Nov-15 05:00N 40°46' W 073°51'0 0.0
2017-Nov-15 04:30N 40°46' W 073°51'0 0.0
2017-Nov-15 04:00N 40°46' W 073°51'0 0.0
2017-Nov-15 03:30N 40°46' W 073°51'0 0.0
2017-Nov-15 03:00N 40°46' W 073°51'0 0.0
2017-Nov-15 02:30N 40°46' W 073°51'0 0.0
2017-Nov-15 02:00N 40°46' W 073°51'0 0.0
2017-Nov-15 01:29N 40°46' W 073°51'0 0.0
2017-Nov-15 00:59N 40°46' W 073°51'0 0.0
2017-Nov-15 00:30N 40°46' W 073°51'0 0.0
2017-Nov-15 00:00N 40°46' W 073°51'0 0.0
2017-Nov-14 23:30N 40°46' W 073°51'0 0.0
2017-Nov-14 23:00N 40°46' W 073°51'0 0.0
2017-Nov-14 22:30N 40°46' W 073°51'0 0.6
2017-Nov-14 22:00N 40°46' W 073°51'2 3.8
2017-Nov-14 21:27N 40°48' W 073°53'3 6.8
2017-Nov-14 21:00N 40°47' W 073°56'3 6.5
2017-Nov-14 20:30N 40°44' W 073°58'3 5.9
2017-Nov-14 20:00N 40°41' W 074°01'3 5.3
2017-Nov-14 19:30N 40°40' W 074°03'3 5.2
2017-Nov-14 19:00N 40°39' W 074°07'2 4.7
2017-Nov-14 18:30N 40°39' W 074°10'2 2.9
2017-Nov-14 17:59N 40°38' W 074°12'0 0.1
2017-Nov-14 17:30N 40°38' W 074°12'0 0.0
2017-Nov-14 16:59N 40°38' W 074°12'0 0.0
2017-Nov-14 16:29N 40°38' W 074°12'0 0.0
2017-Nov-14 16:00N 40°38' W 074°12'0 0.2
2017-Nov-14 15:30N 40°38' W 074°12'1 2.7
2017-Nov-14 15:00N 40°39' W 074°10'2 4.6
2017-Nov-14 14:30N 40°39' W 074°07'2 4.9
2017-Nov-14 14:00N 40°40' W 074°04'3 5.6
2017-Nov-14 13:30N 40°41' W 074°01'3 6.4
2017-Nov-14 13:00N 40°44' W 073°58'4 7.1
2017-Nov-14 12:30N 40°47' W 073°56'3 5.4
2017-Nov-14 12:00N 40°48' W 073°52'2 3.8
2017-Nov-14 11:30N 40°46' W 073°51'0 0.0
2017-Nov-14 11:00N 40°46' W 073°51'0 0.0
2017-Nov-14 10:30N 40°46' W 073°51'0 0.0
2017-Nov-14 10:00N 40°46' W 073°51'0 0.0
2017-Nov-14 09:30N 40°46' W 073°51'0 0.0
2017-Nov-14 09:00N 40°46' W 073°51'0 0.1
2017-Nov-14 08:30N 40°46' W 073°51'0 0.1
2017-Nov-14 08:00N 40°46' W 073°51'0 0.1
2017-Nov-14 07:30N 40°46' W 073°51'0 0.0
2017-Nov-14 06:59N 40°46' W 073°51'0 0.0
2017-Nov-14 06:30N 40°46' W 073°51'0 0.0
2017-Nov-14 06:00N 40°46' W 073°51'0 0.0
2017-Nov-14 05:30N 40°46' W 073°51'0 0.0
2017-Nov-14 05:00N 40°46' W 073°51'0 0.0
2017-Nov-14 04:30N 40°46' W 073°51'0 0.0
2017-Nov-14 04:00N 40°46' W 073°51'0 0.0
2017-Nov-14 03:30N 40°46' W 073°51'0 0.0
2017-Nov-14 03:00N 40°46' W 073°51'0 0.0
2017-Nov-14 02:30N 40°46' W 073°51'0 0.0
2017-Nov-14 02:00N 40°46' W 073°51'0 0.0
2017-Nov-14 01:30N 40°46' W 073°51'0 0.0
2017-Nov-14 01:00N 40°46' W 073°51'0 0.0
2017-Nov-14 00:30N 40°46' W 073°51'0 0.0
2017-Nov-14 00:00N 40°46' W 073°51'0 0.3
2017-Nov-13 23:28N 40°46' W 073°51'2 4.4
2017-Nov-13 22:59N 40°48' W 073°53'3 5.5
2017-Nov-13 22:30N 40°47' W 073°56'3 6.5
2017-Nov-13 22:00N 40°44' W 073°58'  
Track history (hours):
 
Tides and Currents Weather Stations Pressure Air Temp Water Temp Dewpoint Dewpoint Depression Visibility Wind Speed Wind Dir Waves Ship Positions

Pathfinder

Owner: Milton Point LLC, Norfolk, VA. More information available from US FCC via Universal Licensing System and Coast Guard Vessel Documentation Center.

Last reported at 2017-Nov-23 05:01 UTC. Time now 2017-Nov-23 05:14 UTC.
Position N 40°46' W 073°51'.

Length 31 m; draft 4.1 m.

Type: Towing. MMSI: 367191190.

Date/timePositionNaut miles runAvg speedWind from/ knotsBaromVisibWave heightAir tempDewpointWater temp
2017-Nov-23 05:01N 40°46' W 073°51'0 0.0
2017-Nov-23 04:30N 40°46' W 073°51'0 0.4
2017-Nov-23 04:00N 40°46' W 073°51'2 4.9
2017-Nov-23 03:30N 40°48' W 073°53'4 7.2
2017-Nov-23 03:00N 40°46' W 073°57'3 6.8
2017-Nov-23 02:31N 40°43' W 073°58'3 6.3
2017-Nov-23 02:01N 40°41' W 074°02'3 5.4
2017-Nov-23 01:30N 40°39' W 074°05'2 4.9
2017-Nov-23 01:00N 40°39' W 074°08'3 5.1
2017-Nov-23 00:30N 40°39' W 074°11'1 1.0
2017-Nov-23 00:00N 40°38' W 074°12'2 3.9
2017-Nov-22 23:31N 40°39' W 074°09'3 5.4
2017-Nov-22 23:00N 40°39' W 074°06'3 5.4
2017-Nov-22 22:31N 40°40' W 074°02'3 6.4
2017-Nov-22 22:01N 40°42' W 073°59'3 6.6
2017-Nov-22 21:31N 40°45' W 073°58'3 6.4
2017-Nov-22 20:59N 40°48' W 073°55'2 3.8
2017-Nov-22 20:30N 40°48' W 073°52'2 3.5
2017-Nov-22 20:00N 40°46' W 073°51'0 0.0
2017-Nov-22 19:30N 40°46' W 073°51'  
2017-Nov-20 00:30N 40°46' W 073°51'0 0.0
2017-Nov-20 00:00N 40°46' W 073°51'0 0.0
2017-Nov-19 23:29N 40°46' W 073°51'0 0.0
2017-Nov-19 23:00N 40°46' W 073°51'0 0.0
2017-Nov-19 22:27N 40°46' W 073°51'0 0.0
2017-Nov-19 21:59N 40°46' W 073°51'0 0.0
2017-Nov-19 21:28N 40°46' W 073°51'0 0.0
2017-Nov-19 21:00N 40°46' W 073°51'0 0.0
2017-Nov-19 20:30N 40°46' W 073°51'0 0.0
2017-Nov-19 20:00N 40°46' W 073°51'0 0.0
2017-Nov-19 19:30N 40°46' W 073°51'0 0.0
2017-Nov-19 19:00N 40°46' W 073°51'0 0.0
2017-Nov-19 18:30N 40°46' W 073°51'0 0.0
2017-Nov-19 18:00N 40°46' W 073°51'0 0.0
2017-Nov-19 17:30N 40°46' W 073°51'0 0.0
2017-Nov-19 17:00N 40°46' W 073°51'0 0.0
2017-Nov-19 16:30N 40°46' W 073°51'0 0.0
2017-Nov-19 16:00N 40°46' W 073°51'0 0.0
2017-Nov-19 15:30N 40°46' W 073°51'0 0.0
2017-Nov-19 15:00N 40°46' W 073°51'0 0.0
2017-Nov-19 14:30N 40°46' W 073°51'0 0.0
2017-Nov-19 14:00N 40°46' W 073°51'0 0.0
2017-Nov-19 13:30N 40°46' W 073°51'0 0.0
2017-Nov-19 13:00N 40°46' W 073°51'0 0.0
2017-Nov-19 12:30N 40°46' W 073°51'0 0.0
2017-Nov-19 12:00N 40°46' W 073°51'0 0.0
2017-Nov-19 11:30N 40°46' W 073°51'0 0.0
2017-Nov-19 11:00N 40°46' W 073°51'0 0.0
2017-Nov-19 10:30N 40°46' W 073°51'0 0.0
2017-Nov-19 10:00N 40°46' W 073°51'0 0.0
2017-Nov-19 09:30N 40°46' W 073°51'0 0.0
2017-Nov-19 09:00N 40°46' W 073°51'0 0.0
2017-Nov-19 08:30N 40°46' W 073°51'0 0.0
2017-Nov-19 08:00N 40°46' W 073°51'0 0.0
2017-Nov-19 07:30N 40°46' W 073°51'0 0.0
2017-Nov-19 07:00N 40°46' W 073°51'0 0.0
2017-Nov-19 06:30N 40°46' W 073°51'0 0.0
2017-Nov-19 05:59N 40°46' W 073°51'0 0.0
2017-Nov-19 05:30N 40°46' W 073°51'0 0.0
2017-Nov-19 05:00N 40°46' W 073°51'0 0.0
2017-Nov-19 04:30N 40°46' W 073°51'0 0.0
2017-Nov-19 04:00N 40°46' W 073°51'0 0.0
2017-Nov-19 03:30N 40°46' W 073°51'0 0.0
2017-Nov-19 03:00N 40°46' W 073°51'0 0.0
2017-Nov-19 02:30N 40°46' W 073°51'0 0.0
2017-Nov-19 02:00N 40°46' W 073°51'0 0.0
2017-Nov-19 01:30N 40°46' W 073°51'0 0.0
2017-Nov-19 01:00N 40°46' W 073°51'0 0.0
2017-Nov-19 00:30N 40°46' W 073°51'0 0.0
2017-Nov-18 23:59N 40°46' W 073°51'0 0.0
2017-Nov-18 23:30N 40°46' W 073°51'0 0.0
2017-Nov-18 23:00N 40°46' W 073°51'0 0.0
2017-Nov-18 22:30N 40°46' W 073°51'0 0.0
2017-Nov-18 22:00N 40°46' W 073°51'0 0.0
2017-Nov-18 21:30N 40°46' W 073°51'0 0.0
2017-Nov-18 21:00N 40°46' W 073°51'0 0.0
2017-Nov-18 20:30N 40°46' W 073°51'0 0.0
2017-Nov-18 20:00N 40°46' W 073°51'0 0.0
2017-Nov-18 19:30N 40°46' W 073°51'0 0.0
2017-Nov-18 19:00N 40°46' W 073°51'0 0.0
2017-Nov-18 18:30N 40°46' W 073°51'0 0.0
2017-Nov-18 18:00N 40°46' W 073°51'0 0.0
2017-Nov-18 17:30N 40°46' W 073°51'0 0.0
2017-Nov-18 17:00N 40°46' W 073°51'0 0.0
2017-Nov-18 16:30N 40°46' W 073°51'0 0.0
2017-Nov-18 16:00N 40°46' W 073°51'0 0.0
2017-Nov-18 15:30N 40°46' W 073°51'0 0.0
2017-Nov-18 15:00N 40°46' W 073°51'0 0.0
2017-Nov-18 14:30N 40°46' W 073°51'0 0.0
2017-Nov-18 14:00N 40°46' W 073°51'0 0.0
2017-Nov-18 13:30N 40°46' W 073°51'0 0.0
2017-Nov-18 13:00N 40°46' W 073°51'0 0.1
2017-Nov-18 12:30N 40°46' W 073°51'2 3.6
2017-Nov-18 11:59N 40°48' W 073°52'3 5.8
2017-Nov-18 11:30N 40°47' W 073°56'3 6.9
2017-Nov-18 11:00N 40°44' W 073°58'3 5.9
2017-Nov-18 10:30N 40°41' W 074°00'3 6.0
2017-Nov-18 10:00N 40°40' W 074°04'3 5.1
2017-Nov-18 09:30N 40°39' W 074°07'2 4.4
2017-Nov-18 09:00N 40°39' W 074°10'2 3.1
2017-Nov-18 08:30N 40°38' W 074°12'0 0.0
2017-Nov-18 08:00N 40°38' W 074°12'0 0.0
2017-Nov-18 07:30N 40°38' W 074°12'0 0.0
2017-Nov-18 07:00N 40°38' W 074°12'0 0.0
2017-Nov-18 06:30N 40°38' W 074°12'0 0.0
2017-Nov-18 06:00N 40°38' W 074°12'0 0.0
2017-Nov-18 05:30N 40°38' W 074°12'0 0.0
2017-Nov-18 05:00N 40°38' W 074°12'0 0.0
2017-Nov-18 04:30N 40°38' W 074°12'0 0.0
2017-Nov-18 04:00N 40°38' W 074°12'0 0.0
2017-Nov-18 03:30N 40°38' W 074°12'0 0.0
2017-Nov-18 03:00N 40°38' W 074°12'0 0.0
2017-Nov-18 02:30N 40°38' W 074°12'0 0.0
2017-Nov-18 02:00N 40°38' W 074°12'0 0.0
2017-Nov-18 01:30N 40°38' W 074°12'0 0.0
2017-Nov-18 01:00N 40°38' W 074°12'0 0.0
2017-Nov-18 00:30N 40°38' W 074°12'0 0.0
2017-Nov-18 00:00N 40°38' W 074°12'0 0.3
2017-Nov-17 23:30N 40°38' W 074°12'3 5.5
2017-Nov-17 23:00N 40°39' W 074°08'3 5.8
2017-Nov-17 22:30N 40°39' W 074°04'3 5.6
2017-Nov-17 22:00N 40°41' W 074°01'2 4.3
2017-Nov-17 21:30N 40°42' W 073°59'2 3.4
2017-Nov-17 21:00N 40°44' W 073°58'2 4.6
2017-Nov-17 20:30N 40°46' W 073°57'3 5.3
2017-Nov-17 20:00N 40°48' W 073°54'2 4.3
2017-Nov-17 19:30N 40°48' W 073°52'1 2.7
2017-Nov-17 18:59N 40°46' W 073°51'0 0.0
2017-Nov-17 18:30N 40°46' W 073°51'0 0.1
2017-Nov-17 18:00N 40°46' W 073°51'0 0.0
2017-Nov-17 17:30N 40°46' W 073°51'0 0.1
2017-Nov-17 17:00N 40°46' W 073°51'0 0.0
2017-Nov-17 16:30N 40°46' W 073°51'0 0.0
2017-Nov-17 16:00N 40°46' W 073°51'0 0.0
2017-Nov-17 15:30N 40°46' W 073°51'0 0.0
2017-Nov-17 15:00N 40°46' W 073°51'0 0.0
2017-Nov-17 14:30N 40°46' W 073°51'0 0.0
2017-Nov-17 14:00N 40°46' W 073°51'0 0.0
2017-Nov-17 13:30N 40°46' W 073°51'0 0.0
2017-Nov-17 13:00N 40°46' W 073°51'0 0.0
2017-Nov-17 12:30N 40°46' W 073°51'0 0.0
2017-Nov-17 12:00N 40°46' W 073°51'0 0.0
2017-Nov-17 11:30N 40°46' W 073°51'0 0.0
2017-Nov-17 11:00N 40°46' W 073°51'0 0.0
2017-Nov-17 10:30N 40°46' W 073°51'0 0.0
2017-Nov-17 10:00N 40°46' W 073°51'0 0.0
2017-Nov-17 09:30N 40°46' W 073°51'0 0.0
2017-Nov-17 09:00N 40°46' W 073°51'0 0.0
2017-Nov-17 08:30N 40°46' W 073°51'0 0.0
2017-Nov-17 08:00N 40°46' W 073°51'0 0.0
2017-Nov-17 07:30N 40°46' W 073°51'0 0.0
2017-Nov-17 07:00N 40°46' W 073°51'0 0.0
2017-Nov-17 06:30N 40°46' W 073°51'0 0.0
2017-Nov-17 06:00N 40°46' W 073°51'0 0.0
2017-Nov-17 05:30N 40°46' W 073°51'0 0.0
2017-Nov-17 05:00N 40°46' W 073°51'0 0.0
2017-Nov-17 04:30N 40°46' W 073°51'0 0.0
2017-Nov-17 04:00N 40°46' W 073°51'0 0.0
2017-Nov-17 03:30N 40°46' W 073°51'0 0.1
2017-Nov-17 03:00N 40°46' W 073°51'0 0.1
2017-Nov-17 02:30N 40°46' W 073°51'0 0.0
2017-Nov-17 02:00N 40°46' W 073°51'0 0.0
2017-Nov-17 01:30N 40°46' W 073°51'0 0.0
2017-Nov-17 00:59N 40°46' W 073°51'0 0.0
2017-Nov-17 00:30N 40°46' W 073°51'1 2.4
2017-Nov-16 23:59N 40°47' W 073°52'2 4.4
2017-Nov-16 23:30N 40°48' W 073°55'4 7.9
2017-Nov-16 23:00N 40°45' W 073°58'3 6.0
2017-Nov-16 22:30N 40°42' W 073°60'3 5.3
2017-Nov-16 22:00N 40°40' W 074°02'3 5.7
2017-Nov-16 21:30N 40°39' W 074°06'2 4.7
2017-Nov-16 21:00N 40°38' W 074°09'2 4.5
2017-Nov-16 20:30N 40°38' W 074°12'1 1.2
2017-Nov-16 20:00N 40°39' W 074°11'3 5.3
2017-Nov-16 19:30N 40°39' W 074°08'3 5.0
2017-Nov-16 19:00N 40°39' W 074°04'3 5.7
2017-Nov-16 18:30N 40°41' W 074°01'3 6.4
2017-Nov-16 18:01N 40°43' W 073°58'4 7.7
2017-Nov-16 17:30N 40°47' W 073°56'3 6.1
2017-Nov-16 17:00N 40°48' W 073°53'2 4.1
2017-Nov-16 16:30N 40°46' W 073°51'0 0.1
2017-Nov-16 15:59N 40°46' W 073°51'0 0.0
2017-Nov-16 15:30N 40°46' W 073°51'0 0.0
2017-Nov-16 15:00N 40°46' W 073°51'0 0.0
2017-Nov-16 14:30N 40°46' W 073°51'0 0.0
2017-Nov-16 14:00N 40°46' W 073°51'0 0.0
2017-Nov-16 13:30N 40°46' W 073°51'0 0.0
2017-Nov-16 12:53N 40°46' W 073°51'0 0.0
2017-Nov-16 12:29N 40°46' W 073°51'0 0.0
2017-Nov-16 12:00N 40°46' W 073°51'0 0.0
2017-Nov-16 11:30N 40°46' W 073°51'0 0.0
2017-Nov-16 11:00N 40°46' W 073°51'0 0.0
2017-Nov-16 10:30N 40°46' W 073°51'0 0.0
2017-Nov-16 10:00N 40°46' W 073°51'0 0.0
2017-Nov-16 09:30N 40°46' W 073°51'0 0.0
2017-Nov-16 09:00N 40°46' W 073°51'0 0.0
2017-Nov-16 08:29N 40°46' W 073°51'0 0.0
2017-Nov-16 08:00N 40°46' W 073°51'0 0.0
2017-Nov-16 07:29N 40°46' W 073°51'0 0.0
2017-Nov-16 07:00N 40°46' W 073°51'0 0.0
2017-Nov-16 06:29N 40°46' W 073°51'0 0.0
2017-Nov-16 06:00N 40°46' W 073°51'0 0.0
2017-Nov-16 05:30N 40°46' W 073°51'0 0.0
2017-Nov-16 05:00N 40°46' W 073°51'0 0.0
2017-Nov-16 04:30N 40°46' W 073°51'0 0.0
2017-Nov-16 04:00N 40°46' W 073°51'0 0.0
2017-Nov-16 03:30N 40°46' W 073°51'0 0.0
2017-Nov-16 03:00N 40°46' W 073°51'0 0.0
2017-Nov-16 02:30N 40°46' W 073°51'0 0.0
2017-Nov-16 02:00N 40°46' W 073°51'0 0.0
2017-Nov-16 01:30N 40°46' W 073°51'0 0.0
2017-Nov-16 01:00N 40°46' W 073°51'0 0.0
2017-Nov-16 00:30N 40°46' W 073°51'0 0.0
2017-Nov-16 00:00N 40°46' W 073°51'0 0.0
2017-Nov-15 23:30N 40°46' W 073°51'0 0.0
2017-Nov-15 22:59N 40°46' W 073°51'1 1.3
2017-Nov-15 22:29N 40°47' W 073°51'2 4.3
2017-Nov-15 22:00N 40°48' W 073°54'4 7.4
2017-Nov-15 21:29N 40°46' W 073°57'3 6.7
2017-Nov-15 21:00N 40°43' W 073°59'3 6.0
2017-Nov-15 20:30N 40°41' W 074°02'3 5.8
2017-Nov-15 20:00N 40°39' W 074°05'2 4.5
2017-Nov-15 19:30N 40°39' W 074°08'3 5.1
2017-Nov-15 19:00N 40°39' W 074°11'1 1.2
2017-Nov-15 18:30N 40°38' W 074°12'0 0.0
2017-Nov-15 18:00N 40°38' W 074°12'0 0.1
2017-Nov-15 17:30N 40°38' W 074°12'2 3.7
2017-Nov-15 17:00N 40°39' W 074°09'2 4.1
2017-Nov-15 16:30N 40°39' W 074°07'2 4.4
2017-Nov-15 16:00N 40°40' W 074°04'3 6.4
2017-Nov-15 15:30N 40°42' W 074°01'3 6.9
2017-Nov-15 15:00N 40°45' W 073°58'4 8.6
2017-Nov-15 14:29N 40°48' W 073°54'2 4.7
2017-Nov-15 14:00N 40°47' W 073°52'1 1.9
2017-Nov-15 13:30N 40°46' W 073°51'0 0.0
2017-Nov-15 13:00N 40°46' W 073°51'0 0.0
2017-Nov-15 12:00N 40°46' W 073°51'0 0.0
2017-Nov-15 11:30N 40°46' W 073°51'0 0.0
2017-Nov-15 11:00N 40°46' W 073°51'0 0.0
2017-Nov-15 10:30N 40°46' W 073°51'0 0.0
2017-Nov-15 10:00N 40°46' W 073°51'0 0.1
2017-Nov-15 09:30N 40°46' W 073°51'0 0.0
2017-Nov-15 09:00N 40°46' W 073°51'0 0.0
2017-Nov-15 08:30N 40°46' W 073°51'0 0.0
2017-Nov-15 08:00N 40°46' W 073°51'0 0.0
2017-Nov-15 07:30N 40°46' W 073°51'0 0.0
2017-Nov-15 07:00N 40°46' W 073°51'0 0.0
2017-Nov-15 06:30N 40°46' W 073°51'0 0.0
2017-Nov-15 06:00N 40°46' W 073°51'0 0.0
2017-Nov-15 05:30N 40°46' W 073°51'0 0.0
2017-Nov-15 05:00N 40°46' W 073°51'0 0.0
2017-Nov-15 04:30N 40°46' W 073°51'0 0.0
2017-Nov-15 04:00N 40°46' W 073°51'0 0.0
2017-Nov-15 03:30N 40°46' W 073°51'0 0.0
2017-Nov-15 03:00N 40°46' W 073°51'0 0.0
2017-Nov-15 02:30N 40°46' W 073°51'0 0.0
2017-Nov-15 02:00N 40°46' W 073°51'0 0.0
2017-Nov-15 01:29N 40°46' W 073°51'0 0.0
2017-Nov-15 00:59N 40°46' W 073°51'0 0.0
2017-Nov-15 00:30N 40°46' W 073°51'0 0.0
2017-Nov-15 00:00N 40°46' W 073°51'0 0.0
2017-Nov-14 23:30N 40°46' W 073°51'0 0.0
2017-Nov-14 23:00N 40°46' W 073°51'0 0.0
2017-Nov-14 22:30N 40°46' W 073°51'0 0.6
2017-Nov-14 22:00N 40°46' W 073°51'2 3.8
2017-Nov-14 21:27N 40°48' W 073°53'3 6.8
2017-Nov-14 21:00N 40°47' W 073°56'3 6.5
2017-Nov-14 20:30N 40°44' W 073°58'3 5.9
2017-Nov-14 20:00N 40°41' W 074°01'3 5.3
2017-Nov-14 19:30N 40°40' W 074°03'3 5.2
2017-Nov-14 19:00N 40°39' W 074°07'2 4.7
2017-Nov-14 18:30N 40°39' W 074°10'2 2.9
2017-Nov-14 17:59N 40°38' W 074°12'0 0.1
2017-Nov-14 17:30N 40°38' W 074°12'0 0.0
2017-Nov-14 16:59N 40°38' W 074°12'0 0.0
2017-Nov-14 16:29N 40°38' W 074°12'0 0.0
2017-Nov-14 16:00N 40°38' W 074°12'0 0.2
2017-Nov-14 15:30N 40°38' W 074°12'1 2.7
2017-Nov-14 15:00N 40°39' W 074°10'2 4.6
2017-Nov-14 14:30N 40°39' W 074°07'2 4.9
2017-Nov-14 14:00N 40°40' W 074°04'3 5.6
2017-Nov-14 13:30N 40°41' W 074°01'3 6.4
2017-Nov-14 13:00N 40°44' W 073°58'4 7.1
2017-Nov-14 12:30N 40°47' W 073°56'3 5.4
2017-Nov-14 12:00N 40°48' W 073°52'2 3.8
2017-Nov-14 11:30N 40°46' W 073°51'0 0.0
2017-Nov-14 11:00N 40°46' W 073°51'0 0.0
2017-Nov-14 10:30N 40°46' W 073°51'0 0.0
2017-Nov-14 10:00N 40°46' W 073°51'0 0.0
2017-Nov-14 09:30N 40°46' W 073°51'0 0.0
2017-Nov-14 09:00N 40°46' W 073°51'0 0.1
2017-Nov-14 08:30N 40°46' W 073°51'0 0.1
2017-Nov-14 08:00N 40°46' W 073°51'0 0.1
2017-Nov-14 07:30N 40°46' W 073°51'0 0.0
2017-Nov-14 06:59N 40°46' W 073°51'0 0.0
2017-Nov-14 06:30N 40°46' W 073°51'0 0.0
2017-Nov-14 06:00N 40°46' W 073°51'0 0.0
2017-Nov-14 05:30N 40°46' W 073°51'0 0.0
2017-Nov-14 05:00N 40°46' W 073°51'0 0.0
2017-Nov-14 04:30N 40°46' W 073°51'0 0.0
2017-Nov-14 04:00N 40°46' W 073°51'0 0.0
2017-Nov-14 03:30N 40°46' W 073°51'0 0.0
2017-Nov-14 03:00N 40°46' W 073°51'0 0.0
2017-Nov-14 02:30N 40°46' W 073°51'0 0.0
2017-Nov-14 02:00N 40°46' W 073°51'0 0.0
2017-Nov-14 01:30N 40°46' W 073°51'0 0.0
2017-Nov-14 01:00N 40°46' W 073°51'0 0.0
2017-Nov-14 00:30N 40°46' W 073°51'0 0.0
2017-Nov-14 00:00N 40°46' W 073°51'0 0.3
2017-Nov-13 23:28N 40°46' W 073°51'2 4.4
2017-Nov-13 22:59N 40°48' W 073°53'3 5.5
2017-Nov-13 22:30N 40°47' W 073°56'3 6.5
2017-Nov-13 22:00N 40°44' W 073°58'  

Dump ship's entire track history